createdAt,value
2019-05-11T00:04:42.300Z,97373.10
2019-05-11T00:10:33.213Z,97357.11
2019-05-11T00:13:41.041Z,97355.38
2019-05-11T00:16:29.825Z,97271.73
2019-05-11T00:19:18.673Z,97345.72
2019-05-11T00:22:07.428Z,97351.86
2019-05-11T00:24:56.231Z,97346.27
2019-05-11T00:27:45.020Z,97345.11
2019-05-11T00:30:33.817Z,97344.86
2019-05-11T00:33:22.619Z,97342.96
2019-05-11T00:36:11.501Z,97339.44
2019-05-11T00:39:00.279Z,97336.02
2019-05-11T00:41:49.091Z,97343.96
2019-05-11T00:44:37.878Z,97343.80
2019-05-11T00:47:26.683Z,97126.96
2019-05-11T00:50:15.550Z,97344.09
2019-05-11T00:53:04.334Z,97341.63
2019-05-11T00:55:53.135Z,97295.05
2019-05-11T00:58:41.944Z,97332.33
2019-05-11T01:01:30.781Z,97242.36
2019-05-11T01:04:19.784Z,97313.64
2019-05-11T01:07:08.552Z,97313.95
2019-05-11T01:09:50.431Z,97305.73
2019-05-11T01:12:39.217Z,97316.23
2019-05-11T01:15:28.018Z,97316.27
2019-05-11T01:18:16.794Z,97318.55
2019-05-11T01:21:05.604Z,97324.42
2019-05-11T01:23:54.382Z,97316.25
2019-05-11T01:26:43.179Z,97320.12
2019-05-11T01:29:31.968Z,97067.79
2019-05-11T01:32:20.769Z,97312.61
2019-05-11T01:35:09.979Z,97309.45
2019-05-11T01:37:58.799Z,97306.08
2019-05-11T01:40:58.146Z,97300.30
2019-05-11T01:43:38.423Z,97295.49
2019-05-11T01:46:27.367Z,97296.27
2019-05-11T01:49:16.269Z,97294.02
2019-05-11T01:52:05.158Z,97294.23
2019-05-11T01:54:54.309Z,97296.05
2019-05-11T01:57:43.152Z,97291.27
2019-05-11T02:00:31.982Z,97296.19
2019-05-11T02:03:20.931Z,97293.56
2019-05-11T02:06:09.695Z,97291.30
2019-05-11T02:08:58.682Z,97035.79
2019-05-11T02:11:40.074Z,97280.05
2019-05-11T02:14:28.875Z,97284.55
2019-05-11T02:17:17.678Z,97133.60
2019-05-11T02:20:06.531Z,97273.02
2019-05-11T02:25:49.963Z,97265.89
2019-05-11T02:28:38.705Z,97259.39
2019-05-11T02:31:27.492Z,97113.71
2019-05-11T02:34:16.298Z,97250.83
2019-05-11T02:37:05.082Z,97241.09
2019-05-11T02:39:53.889Z,97018.47
2019-05-11T02:42:42.689Z,97234.97
2019-05-11T02:45:50.823Z,97245.42
2019-05-11T02:48:39.610Z,97255.80
2019-05-11T02:51:49.350Z,97251.10
2019-05-11T02:58:07.366Z,97242.97
2019-05-11T03:00:56.124Z,97241.84
2019-05-11T03:03:44.948Z,97145.29
2019-05-11T03:06:33.708Z,97240.10
2019-05-11T03:09:22.510Z,97226.85
2019-05-11T03:12:04.254Z,97148.05
2019-05-11T03:14:53.052Z,97219.06
2019-05-11T03:17:41.840Z,96958.18
2019-05-11T03:20:30.641Z,97226.55
2019-05-11T03:23:19.442Z,97228.53
2019-05-11T03:26:08.233Z,97128.36
2019-05-11T03:28:57.031Z,97228.13
2019-05-11T03:31:45.824Z,97232.81
2019-05-11T03:34:34.639Z,97233.26
2019-05-11T03:37:15.813Z,97252.58
2019-05-11T03:40:25.527Z,96984.20
2019-05-11T03:43:14.313Z,97104.97
2019-05-11T03:46:03.106Z,97259.84
2019-05-11T03:48:51.885Z,97257.20
2019-05-11T03:51:40.690Z,97253.98
2019-05-11T03:54:29.472Z,97251.72
2019-05-11T03:57:18.278Z,97248.80
2019-05-11T04:03:35.736Z,97254.33
2019-05-11T04:06:24.525Z,97260.02
2019-05-11T04:09:13.324Z,97260.95
2019-05-11T04:11:53.086Z,97259.33
2019-05-11T04:14:41.893Z,97250.62
2019-05-11T04:17:30.679Z,97242.42
2019-05-11T04:20:19.492Z,97137.59
2019-05-11T04:23:08.298Z,97231.08
2019-05-11T04:25:57.083Z,97226.73
2019-05-11T04:28:45.886Z,97228.41
2019-05-11T04:34:44.115Z,97215.97
2019-05-11T04:37:32.941Z,97209.05
2019-05-11T04:40:21.776Z,97213.01
2019-05-11T04:43:10.644Z,97215.95
2019-05-11T04:45:59.550Z,97224.65
2019-05-11T04:48:48.489Z,97215.84
2019-05-11T04:51:37.361Z,97221.91
2019-05-11T04:54:26.236Z,97006.84
2019-05-11T04:57:15.112Z,97213.38
2019-05-11T05:03:19.653Z,97210.97
2019-05-11T05:06:22.173Z,97210.47
2019-05-11T05:09:03.702Z,97207.57
2019-05-11T05:11:49.706Z,97199.58
2019-05-11T05:14:31.037Z,96951.50
2019-05-11T05:17:19.847Z,97199.24
2019-05-11T05:20:27.830Z,96970.57
2019-05-11T05:23:16.614Z,97196.05
2019-05-11T05:26:05.751Z,97201.93
2019-05-11T05:28:54.503Z,97202.06
2019-05-11T05:31:43.394Z,97200.59
2019-05-11T05:34:32.189Z,97203.47
2019-05-11T05:37:20.974Z,97196.56
2019-05-11T05:40:30.691Z,97191.32
2019-05-11T05:43:27.749Z,97189.14
2019-05-11T05:46:10.056Z,97193.02
2019-05-11T05:48:58.836Z,97194.15
2019-05-11T05:51:47.707Z,97189.50
2019-05-11T05:54:36.503Z,97187.70
2019-05-11T05:57:25.294Z,97189.28
2019-05-11T06:00:14.446Z,97180.47
2019-05-11T06:03:03.245Z,97039.31
2019-05-11T06:05:52.097Z,97070.72
2019-05-11T06:08:43.129Z,97185.16
2019-05-11T06:11:31.439Z,97187.37
2019-05-11T06:14:20.249Z,97189.08
2019-05-11T06:17:09.024Z,96924.97
2019-05-11T06:19:57.822Z,97198.08
2019-05-11T06:22:46.606Z,97194.97
2019-05-11T06:25:35.409Z,97186.80
2019-05-11T06:28:24.223Z,97184.59
2019-05-11T06:31:13.012Z,97154.45
2019-05-11T06:34:01.820Z,97185.27
2019-05-11T06:36:50.609Z,96936.31
2019-05-11T06:39:39.413Z,97185.72
2019-05-11T06:42:28.218Z,97178.94
2019-05-11T06:45:17.062Z,97191.64
2019-05-11T06:48:05.869Z,97185.58
2019-05-11T06:50:54.756Z,97180.46
2019-05-11T06:53:43.530Z,97151.35
2019-05-11T06:56:32.335Z,97186.80
2019-05-11T06:59:21.113Z,97189.54
2019-05-11T07:02:09.919Z,97192.15
2019-05-11T07:04:58.723Z,97191.23
2019-05-11T07:07:48.103Z,97192.79
2019-05-11T07:10:30.645Z,97058.34
2019-05-11T07:13:19.462Z,97201.66
2019-05-11T07:16:08.244Z,97193.98
2019-05-11T07:18:57.057Z,97197.34
2019-05-11T07:21:45.834Z,97199.89
2019-05-11T07:24:34.638Z,97195.38
2019-05-11T07:27:23.434Z,96966.44
2019-05-11T07:30:12.315Z,97200.88
2019-05-11T07:33:01.236Z,96964.58
2019-05-11T07:35:50.012Z,96974.02
2019-05-11T07:38:38.798Z,97207.09
2019-05-11T07:41:47.846Z,97216.89
2019-05-11T07:44:40.981Z,97205.78
2019-05-11T07:47:27.999Z,97201.55
2019-05-11T07:50:18.594Z,97201.38
2019-05-11T07:53:08.243Z,97199.29
2019-05-11T07:55:58.175Z,97196.85
2019-05-11T07:58:48.140Z,97196.06
2019-05-11T08:01:38.725Z,96939.39
2019-05-11T08:04:28.735Z,97194.08
2019-05-11T08:07:18.589Z,97123.23
2019-05-11T08:09:59.790Z,97188.84
2019-05-11T08:12:48.595Z,97193.24
2019-05-11T08:15:38.286Z,97187.28
2019-05-11T08:18:28.380Z,97194.51
2019-05-11T08:21:18.407Z,97186.66
2019-05-11T08:24:09.180Z,97196.64
2019-05-11T08:26:58.375Z,97196.21
2019-05-11T08:29:48.886Z,97194.92
2019-05-11T08:32:38.839Z,97195.59
2019-05-11T08:35:31.181Z,97172.06
2019-05-11T08:38:18.657Z,97198.66
2019-05-11T08:41:08.217Z,97198.48
2019-05-11T08:43:58.667Z,97199.11
2019-05-11T08:46:48.503Z,97198.54
2019-05-11T08:49:38.115Z,97196.52
2019-05-11T08:52:28.223Z,97206.68
2019-05-11T08:55:19.133Z,97200.86
2019-05-11T08:58:08.969Z,97205.34
2019-05-11T09:00:58.415Z,97203.45
2019-05-11T09:03:48.408Z,97208.80
2019-05-11T09:06:37.759Z,97208.23
2019-05-11T09:09:28.718Z,96980.78
2019-05-11T09:12:11.552Z,97218.83
2019-05-11T09:15:00.366Z,97221.15
2019-05-11T09:17:49.167Z,97222.47
2019-05-11T09:20:57.698Z,96991.89
2019-05-11T09:23:48.638Z,97216.12
2019-05-11T09:26:39.031Z,97230.41
2019-05-11T09:29:28.794Z,97138.88
2019-05-11T09:31:58.531Z,97232.91
2019-05-11T09:34:49.017Z,97234.86
2019-05-11T09:37:38.245Z,97035.73
2019-05-11T09:40:28.545Z,97208.24
2019-05-11T09:43:18.855Z,97239.72
2019-05-11T09:46:08.359Z,97238.20
2019-05-11T09:48:58.976Z,97253.28
2019-05-11T09:51:48.744Z,97183.05
2019-05-11T09:54:38.202Z,96993.56
2019-05-11T09:57:28.092Z,97254.84
2019-05-11T10:03:45.362Z,97267.79
2019-05-11T10:09:43.541Z,97268.41
2019-05-11T10:12:25.426Z,97275.91
2019-05-11T10:18:42.721Z,97274.38
2019-05-11T10:21:31.534Z,97277.09
2019-05-11T10:24:20.361Z,97288.54
2019-05-11T10:27:09.225Z,97293.02
2019-05-11T10:29:58.973Z,97297.98
2019-05-11T10:35:48.433Z,97300.33
2019-05-11T10:38:38.391Z,97309.92
2019-05-11T10:41:28.420Z,97307.45
2019-05-11T10:44:18.823Z,97063.22
2019-05-11T10:47:08.356Z,97273.46
2019-05-11T10:49:58.745Z,97324.97
2019-05-11T10:52:48.375Z,97188.48
2019-05-11T10:55:38.854Z,97063.94
2019-05-11T10:58:28.671Z,97332.67
2019-05-11T11:01:18.312Z,97334.06
2019-05-11T11:04:08.171Z,97338.37
2019-05-11T11:06:59.064Z,97343.77
2019-05-11T11:09:49.050Z,97345.32
2019-05-11T11:12:31.337Z,97345.77
2019-05-11T11:18:38.105Z,97288.64
2019-05-11T11:21:27.922Z,97286.34
2019-05-11T11:24:17.925Z,97359.98
2019-05-11T11:27:10.230Z,97366.88
2019-05-11T11:29:58.417Z,97226.23
2019-05-11T11:32:48.260Z,97145.17
2019-05-11T11:35:38.548Z,97366.13
2019-05-11T11:38:28.775Z,97369.16
2019-05-11T11:41:18.918Z,97372.31
2019-05-11T11:44:08.081Z,97377.90
2019-05-11T11:46:58.978Z,97377.87
2019-05-11T11:49:48.704Z,97378.58
2019-05-11T11:52:38.315Z,97383.93
2019-05-11T11:55:29.036Z,97389.37
2019-05-11T11:58:23.495Z,97394.03
2019-05-11T12:01:09.136Z,97238.02
2019-05-11T12:03:58.223Z,97405.80
2019-05-11T12:06:48.993Z,97402.56
2019-05-11T12:09:39.025Z,97405.23
2019-05-11T12:12:21.005Z,97347.88
2019-05-11T12:15:09.868Z,97217.59
2019-05-11T12:17:58.931Z,97425.89
2019-05-11T12:20:49.194Z,97426.76
2019-05-11T12:23:38.291Z,97358.34
2019-05-11T12:26:28.505Z,97438.75
2019-05-11T12:29:18.807Z,97437.42
2019-05-11T12:38:19.010Z,97451.72
2019-05-11T12:41:08.786Z,97452.11
2019-05-11T12:43:58.442Z,97459.58
2019-05-11T12:47:19.210Z,97467.44
2019-05-11T12:49:58.595Z,97471.16
2019-05-11T12:52:47.745Z,97223.28
2019-05-11T12:55:38.157Z,97480.67
2019-05-11T12:58:28.105Z,97307.94
2019-05-11T13:01:18.706Z,97491.67
2019-05-11T13:04:08.944Z,97386.91
2019-05-11T13:06:58.766Z,97294.36
2019-05-11T13:09:48.518Z,97426.81
2019-05-11T13:12:38.628Z,97501.57
2019-05-11T13:15:21.838Z,97507.15
2019-05-11T13:18:10.677Z,97509.91
2019-05-11T13:20:59.509Z,97515.85
2019-05-11T13:23:48.938Z,97521.88
2019-05-11T13:26:38.901Z,97289.98
2019-05-11T13:29:28.671Z,97532.33
2019-05-11T13:32:18.778Z,97413.93
2019-05-11T13:35:09.308Z,97434.42
2019-05-11T13:37:59.723Z,97548.58
2019-05-11T13:40:48.943Z,97415.61
2019-05-11T13:43:39.136Z,97564.12
2019-05-11T13:46:28.385Z,97505.35
2019-05-11T13:49:11.531Z,97573.46
2019-05-11T13:52:00.353Z,97334.98
2019-05-11T13:54:49.140Z,97577.45
2019-05-11T14:00:38.085Z,97586.20
2019-05-11T14:03:27.823Z,97500.89
2019-05-11T14:06:18.377Z,97593.14
2019-05-11T14:12:09.241Z,97606.43
2019-05-11T14:14:38.730Z,97633.91
2019-05-11T14:17:31.195Z,97619.70
2019-05-11T14:20:18.909Z,97623.45
2019-05-11T14:23:08.575Z,97633.94
2019-05-11T14:25:57.677Z,97569.48
2019-05-11T14:28:48.204Z,97635.90
2019-05-11T14:31:38.849Z,97640.80
2019-05-11T14:34:29.230Z,97645.36
2019-05-11T14:37:18.212Z,97656.30
2019-05-11T14:40:08.965Z,97664.33
2019-05-11T14:42:58.210Z,97671.45
2019-05-11T14:45:48.737Z,97677.26
2019-05-11T14:48:39.110Z,97689.23
2019-05-11T14:54:38.174Z,97673.56
2019-05-11T14:57:27.932Z,97717.80
2019-05-11T15:00:18.614Z,97511.42
2019-05-11T15:03:08.764Z,97562.83
2019-05-11T15:05:58.238Z,97729.38
2019-05-11T15:08:48.137Z,97742.22
2019-05-11T15:11:38.851Z,97659.28
2019-05-11T15:14:22.174Z,97613.71
2019-05-11T15:17:10.585Z,97520.20
2019-05-11T15:19:59.396Z,97773.41
2019-05-11T15:22:28.885Z,97775.55
2019-05-11T15:25:38.560Z,97783.73
2019-05-11T15:28:28.467Z,97593.70
2019-05-11T15:31:22.085Z,97607.64
2019-05-11T15:34:18.777Z,97807.77
2019-05-11T15:37:09.113Z,97811.98
2019-05-11T15:42:58.511Z,97818.62
2019-05-11T15:45:48.693Z,97578.83
2019-05-11T15:48:31.937Z,97830.95
2019-05-11T15:51:20.712Z,97840.02
2019-05-11T15:54:09.577Z,97842.33
2019-05-11T15:56:59.990Z,97837.28
2019-05-11T15:59:48.875Z,97854.84
2019-05-11T16:02:37.838Z,97587.03
2019-05-11T16:05:28.663Z,97602.47
2019-05-11T16:08:19.045Z,97880.88
2019-05-11T16:11:09.265Z,97884.20
2019-05-11T16:13:58.619Z,97887.59
2019-05-11T16:16:48.669Z,97893.55
2019-05-11T16:19:38.038Z,97903.37
2019-05-11T16:22:28.100Z,97682.20
2019-05-11T16:25:19.206Z,97912.02
2019-05-11T16:28:07.778Z,97911.97
2019-05-11T16:30:58.454Z,97910.13
2019-05-11T16:33:48.698Z,97909.23
2019-05-11T16:36:38.995Z,97924.22
2019-05-11T16:39:28.127Z,97929.53
2019-05-11T16:42:16.873Z,97928.25
2019-05-11T16:48:14.599Z,97930.17
2019-05-11T16:51:03.446Z,97824.04
2019-05-11T16:53:52.325Z,97854.16
2019-05-11T16:56:41.120Z,97852.58
2019-05-11T16:59:30.478Z,97941.91
2019-05-11T17:02:19.282Z,97954.15
2019-05-11T17:05:33.462Z,97956.12
2019-05-11T17:08:18.712Z,97963.25
2019-05-11T17:11:01.412Z,97982.56
2019-05-11T17:13:50.218Z,97987.27
2019-05-11T17:16:39.030Z,98010.59
2019-05-11T17:19:42.190Z,98005.79
2019-05-11T17:22:18.970Z,98014.91
2019-05-11T17:25:09.743Z,98016.09
2019-05-11T17:27:58.852Z,98015.02
2019-05-11T17:30:49.268Z,98022.86
2019-05-11T17:33:58.151Z,98035.06
2019-05-11T17:36:47.607Z,98034.02
2019-05-11T17:39:38.451Z,98044.39
2019-05-11T17:42:26.960Z,98045.27
2019-05-11T17:45:15.799Z,98046.56
2019-05-11T17:48:04.598Z,98044.48
2019-05-11T17:50:46.675Z,98056.28
2019-05-11T17:53:37.656Z,97893.53
2019-05-11T17:56:27.967Z,97791.95
2019-05-11T17:59:16.528Z,98053.60
2019-05-11T18:02:05.315Z,98053.39
2019-05-11T18:04:54.121Z,97791.11
2019-05-11T18:10:50.673Z,98063.77
2019-05-11T18:13:31.907Z,98072.00
2019-05-11T18:16:20.708Z,98073.09
2019-05-11T18:22:17.899Z,98072.58
2019-05-11T18:28:37.809Z,98016.38
2019-05-11T18:34:55.122Z,98062.52
2019-05-11T18:37:43.913Z,98102.70
2019-05-11T18:40:32.748Z,98109.99
2019-05-11T18:43:21.548Z,98116.97
2019-05-11T18:46:10.361Z,98118.13
2019-05-11T18:48:59.141Z,98126.40
2019-05-11T18:51:48.458Z,98128.07
2019-05-11T18:54:38.598Z,98133.81
2019-05-11T18:57:27.960Z,97894.29
2019-05-11T19:00:38.214Z,98144.08
2019-05-11T19:03:28.282Z,98149.59
2019-05-11T19:06:18.346Z,97913.75
2019-05-11T19:12:03.591Z,98172.44
2019-05-11T19:14:45.138Z,98177.92
2019-05-11T19:17:53.039Z,98183.95
2019-05-11T19:20:45.631Z,98182.86
2019-05-11T19:23:51.417Z,98196.33
2019-05-11T19:26:40.250Z,98196.16
2019-05-11T19:32:23.782Z,98000.41
2019-05-11T19:35:12.568Z,98218.22
2019-05-11T19:38:01.373Z,98219.20
2019-05-11T19:40:50.198Z,98198.54
2019-05-11T19:43:39.072Z,98222.91
2019-05-11T19:46:28.142Z,98084.84
2019-05-11T19:49:19.027Z,98238.17
2019-05-11T19:52:08.938Z,97969.98
2019-05-11T19:54:57.844Z,98258.59
2019-05-11T19:57:48.260Z,98250.13
2019-05-11T20:00:38.025Z,98258.14
2019-05-11T20:03:28.677Z,98287.55
2019-05-11T20:06:18.731Z,98118.84
2019-05-11T20:09:08.778Z,98035.77
2019-05-11T20:11:58.331Z,98102.55
2019-05-11T20:14:39.844Z,98281.91
2019-05-11T20:17:28.906Z,98277.33
2019-05-11T20:20:19.181Z,98280.30
2019-05-11T20:23:07.999Z,98281.07
2019-05-11T20:25:58.207Z,98287.59
2019-05-11T20:28:48.271Z,98296.50
2019-05-11T20:31:37.887Z,98302.11
2019-05-11T20:34:28.765Z,98301.27
2019-05-11T20:37:18.232Z,98305.95
2019-05-11T20:40:09.223Z,98060.12
2019-05-11T20:42:58.850Z,98317.05
2019-05-11T20:45:48.849Z,98234.50
2019-05-11T20:48:38.243Z,98065.34
2019-05-11T20:51:36.273Z,98322.85
2019-05-11T20:54:18.701Z,98333.55
2019-05-11T20:57:08.953Z,98326.33
2019-05-11T20:59:58.088Z,98337.01
2019-05-11T21:02:48.699Z,98340.48
2019-05-11T21:05:37.439Z,98267.98
2019-05-11T21:08:28.269Z,98346.91
2019-05-11T21:11:18.061Z,98088.44
2019-05-11T21:14:28.618Z,98085.05
2019-05-11T21:17:09.884Z,98371.31
2019-05-11T21:19:58.685Z,98205.72
2019-05-11T21:26:15.987Z,98352.53
2019-05-11T21:29:08.410Z,98358.53
2019-05-11T21:31:58.992Z,98353.80
2019-05-11T21:34:48.881Z,98210.85
2019-05-11T21:37:38.998Z,98365.36
2019-05-11T21:40:31.126Z,98373.46
2019-05-11T21:43:19.073Z,98382.00
2019-05-11T21:46:08.298Z,98391.39
2019-05-11T21:48:58.420Z,98398.23
2019-05-11T21:54:41.592Z,98412.77
2019-05-11T21:57:30.401Z,98423.05
2019-05-11T22:03:48.023Z,98437.98
2019-05-11T22:06:39.007Z,98443.10
2019-05-11T22:09:28.702Z,98446.92
2019-05-11T22:12:18.747Z,98449.46
2019-05-11T22:15:00.594Z,98215.33
2019-05-11T22:17:49.391Z,98460.92
2019-05-11T22:20:41.008Z,98212.79
2019-05-11T22:23:28.697Z,98477.68
2019-05-11T22:26:17.999Z,98480.65
2019-05-11T22:29:08.018Z,98486.61
2019-05-11T22:31:58.117Z,98267.28
2019-05-11T22:34:47.934Z,98495.97
2019-05-11T22:37:38.517Z,98500.72
2019-05-11T22:40:28.400Z,98285.17
2019-05-11T22:43:18.936Z,98513.43
2019-05-11T22:46:07.720Z,98521.13
2019-05-11T22:48:58.266Z,98522.80
2019-05-11T22:51:47.065Z,98535.56
2019-05-11T22:54:38.185Z,98430.31
2019-05-11T22:57:27.362Z,98539.41
2019-05-11T23:03:31.626Z,98309.09
2019-05-11T23:06:20.436Z,98563.45
2019-05-11T23:09:09.284Z,98302.48
2019-05-11T23:12:01.010Z,98579.35
2019-05-11T23:17:59.940Z,98586.13
2019-05-11T23:20:48.483Z,98589.18
2019-05-11T23:23:37.293Z,98589.66
2019-05-11T23:26:28.113Z,98588.34
2019-05-11T23:29:16.604Z,98588.25
2019-05-11T23:32:05.400Z,98356.60
2019-05-11T23:34:54.183Z,98589.80
2019-05-11T23:37:43.068Z,98594.55
2019-05-11T23:40:31.920Z,98599.55
2019-05-11T23:43:20.723Z,98607.94
2019-05-11T23:46:09.528Z,98609.22
2019-05-11T23:48:58.323Z,98609.19
2019-05-11T23:51:47.806Z,98603.16
2019-05-11T23:54:38.275Z,98600.53
2019-05-11T23:57:28.165Z,98325.11
